Terminal Aerodrome Forecast
Issued by NWS

Current Version | Previous Version | Text Only | Print | Product List | Glossary Off
Versions: 1 2 3 4 5 6 7 8 9 10 11 12 13 14 15 16 17

000
FTUS44 KSJT 232300
TAFJCT
TAF
KJCT 232326Z 2400/2424 29010KT P6SM FEW200
     FM240200 34009KT P6SM SKC
     FM241000 VRB04KT P6SM SKC=

USA.gov is the U.S. government's official web portal to all federal, state and local government web resources and services.